Time;durP1;ratioP1;P1;durP2;ratioP2;P2;SDS_P1;SDS_P2;PMS_P1;PMS_P2;Temp;Humidity;BMP_temperature;BMP_pressure;BME280_temperature;BME280_humidity;BME280_pressure;Samples;Min_cycle;Max_cycle;Signal;HPM_P1;HPM_P2
2022/01/10 00:00:28;;;;;;;4.82;4.43;;;;;;;5.70;76.10;93368.53;5075650;28;20216;-66
2022/01/10 00:02:57;;;;;;;4.50;4.10;;;;;;;5.73;76.27;93367.75;5075638;28;20212;-66
2022/01/10 00:05:24;;;;;;;4.90;4.45;;;;;;;5.78;76.37;93361.22;5074364;28;20197;-66
2022/01/10 00:07:51;;;;;;;4.25;3.85;;;;;;;5.72;76.37;93363.47;5075488;28;20196;-66
2022/01/10 00:10:18;;;;;;;4.07;3.67;;;;;;;5.76;76.03;93366.25;5075450;28;20239;-66
2022/01/10 00:12:45;;;;;;;4.30;3.90;;;;;;;5.66;76.06;93369.59;5075093;28;20518;-66
2022/01/10 00:15:15;;;;;;;4.80;4.25;;;;;;;5.67;76.71;93366.50;5075469;28;20196;-66
2022/01/10 00:17:44;;;;;;;4.78;4.32;;;;;;;5.61;77.27;93367.94;5075126;28;20205;-66
2022/01/10 00:20:14;;;;;;;4.78;4.38;;;;;;;5.60;76.79;93366.38;5074543;28;20231;-66
2022/01/10 00:22:45;;;;;;;5.63;5.13;;;;;;;5.58;77.08;93363.19;5075474;28;20189;-66
2022/01/10 00:25:13;;;;;;;5.50;5.00;;;;;;;5.64;76.92;93363.69;5075166;28;20197;-66
2022/01/10 00:27:40;;;;;;;5.85;5.35;;;;;;;5.58;77.31;93359.69;5074769;28;20556;-66
2022/01/10 00:30:09;;;;;;;6.03;5.43;;;;;;;5.65;77.38;93366.06;5075284;28;20181;-66
2022/01/10 00:32:36;;;;;;;5.60;5.03;;;;;;;5.70;77.41;93370.44;5075327;28;20181;-66
2022/01/10 00:35:05;;;;;;;5.35;4.80;;;;;;;5.71;77.34;93366.56;5074535;28;20207;-66
2022/01/10 00:37:33;;;;;;;5.70;4.88;;;;;;;5.70;77.08;93371.25;5075240;28;20196;-66
2022/01/10 00:39:59;;;;;;;4.93;4.53;;;;;;;5.72;77.38;93362.66;5075181;28;20205;-66
2022/01/10 00:42:26;;;;;;;5.88;4.90;;;;;;;5.63;77.60;93360.19;5075371;28;20250;-66
2022/01/10 00:44:55;;;;;;;5.25;4.75;;;;;;;5.61;77.80;93365.22;5074917;28;20250;-66
2022/01/10 00:47:22;;;;;;;6.10;5.15;;;;;;;5.58;78.17;93357.72;5075016;28;20189;-67
2022/01/10 00:49:48;;;;;;;5.35;4.85;;;;;;;5.59;77.88;93366.72;5074770;28;20181;-67
2022/01/10 00:52:17;;;;;;;6.15;4.75;;;;;;;5.60;78.52;93360.91;5074070;28;20201;-66
2022/01/10 00:54:43;;;;;;;6.20;5.30;;;;;;;5.55;78.54;93353.78;5074775;28;20522;-66
2022/01/10 00:57:10;;;;;;;7.15;5.20;;;;;;;5.64;78.29;93356.28;5074015;28;20200;-66
2022/01/10 00:59:37;;;;;;;5.90;5.05;;;;;;;5.66;78.13;93364.91;5074194;28;20229;-66
2022/01/10 01:02:04;;;;;;;5.22;4.60;;;;;;;5.70;78.18;93356.75;5074003;28;20306;-66
2022/01/10 01:04:31;;;;;;;4.93;4.43;;;;;;;5.68;78.48;93348.16;5074266;28;20193;-66
2022/01/10 01:06:58;;;;;;;5.57;5.00;;;;;;;5.70;78.36;93352.09;5074535;28;20193;-66
2022/01/10 01:09:26;;;;;;;6.60;5.05;;;;;;;5.60;78.50;93349.19;5073921;28;20209;-66
2022/01/10 01:14:53;;;;;;;4.57;4.07;;;;;;;5.50;79.31;93345.88;5073284;28;20204;-66
2022/01/10 01:17:36;;;;;;;4.90;4.50;;;;;;;5.51;79.36;93335.72;5075113;28;20185;-66
2022/01/10 01:20:19;;;;;;;4.97;4.45;;;;;;;5.47;79.75;93343.84;5073444;28;20213;-66
2022/01/10 01:25:31;;;;;;;5.05;4.65;;;;;;;5.41;80.09;93334.38;5074682;28;20275;-66
2022/01/10 01:27:59;;;;;;;5.60;5.10;;;;;;;5.40;80.40;93338.25;5074100;28;20203;-66
2022/01/10 01:30:26;;;;;;;5.63;5.05;;;;;;;5.40;80.73;93340.19;5073809;28;20205;-66
2022/01/10 01:32:52;;;;;;;5.88;5.38;;;;;;;5.36;80.72;93342.09;5074132;28;20651;-65
2022/01/10 01:35:24;;;;;;;5.88;5.18;;;;;;;5.29;81.33;93337.25;5074682;28;20181;-66
2022/01/10 01:37:51;;;;;;;6.55;5.15;;;;;;;5.29;81.34;93334.53;5073840;28;20197;-66
2022/01/10 01:40:19;;;;;;;6.00;5.40;;;;;;;5.25;81.91;93334.47;5074063;28;20345;-66
2022/01/10 01:42:47;;;;;;;5.20;4.70;;;;;;;5.15;82.15;93337.78;5073868;28;20269;-66
2022/01/10 01:45:16;;;;;;;4.95;4.45;;;;;;;5.24;82.20;93327.41;5073497;28;20452;-66
2022/01/10 01:47:44;;;;;;;5.30;4.80;;;;;;;5.23;82.03;93328.59;5077060;28;20193;-66
2022/01/10 01:50:11;;;;;;;5.28;4.72;;;;;;;5.21;81.77;93324.63;5077684;28;20201;-66
2022/01/10 01:52:38;;;;;;;4.80;4.28;;;;;;;5.14;82.99;93317.06;5077209;28;20201;-66
2022/01/10 01:55:07;;;;;;;5.10;4.65;;;;;;;5.12;82.89;93318.56;5077060;28;20185;-65
2022/01/10 01:57:35;;;;;;;5.45;4.57;;;;;;;5.14;82.51;93319.81;5077818;28;20663;-65
2022/01/10 02:00:04;;;;;;;4.57;4.18;;;;;;;5.12;82.37;93319.38;5077686;28;20227;-65
2022/01/10 02:02:31;;;;;;;5.65;5.15;;;;;;;5.19;82.40;93318.72;5077099;28;20208;-66
2022/01/10 02:04:58;;;;;;;6.30;4.55;;;;;;;5.18;82.88;93315.19;5076950;28;20193;-66
2022/01/10 02:07:25;;;;;;;5.40;4.80;;;;;;;5.19;82.48;93319.53;5077660;28;20189;-66
2022/01/10 02:09:52;;;;;;;5.55;5.00;;;;;;;5.18;82.73;93317.13;5077090;28;20201;-66
2022/01/10 02:12:18;;;;;;;4.63;4.22;;;;;;;5.19;82.67;93318.72;5077411;28;20486;-66
2022/01/10 02:14:46;;;;;;;4.15;3.75;;;;;;;5.30;82.34;93316.97;5077697;28;20193;-66
2022/01/10 02:17:18;;;;;;;4.43;4.03;;;;;;;5.25;82.29;93326.25;5076735;28;20193;-67
2022/01/10 02:19:56;;;;;;;4.60;4.20;;;;;;;5.10;83.40;93320.91;5077719;28;20186;-65
2022/01/10 02:22:23;;;;;;;4.30;3.90;;;;;;;5.14;82.99;93322.53;5077675;28;20185;-65
2022/01/10 02:24:50;;;;;;;3.83;3.53;;;;;;;5.07;83.72;93323.19;5076704;28;20189;-65
2022/01/10 02:27:17;;;;;;;3.92;3.63;;;;;;;5.07;83.66;93319.66;5076464;28;20239;-66
2022/01/10 02:29:43;;;;;;;4.00;3.70;;;;;;;5.15;83.58;93318.66;5077506;28;20197;-65
2022/01/10 02:32:10;;;;;;;3.78;3.47;;;;;;;5.12;83.58;93321.31;5076634;28;20212;-65
2022/01/10 02:34:37;;;;;;;3.30;3.10;;;;;;;5.07;83.79;93325.91;5076478;28;20215;-65
2022/01/10 02:37:05;;;;;;;3.88;3.50;;;;;;;5.05;83.81;93330.19;5076257;28;20208;-65
2022/01/10 02:39:32;;;;;;;4.00;3.70;;;;;;;5.07;83.89;93328.66;5076259;28;20529;-65
2022/01/10 02:41:59;;;;;;;3.70;3.40;;;;;;;4.98;84.48;93327.31;5076833;28;20213;-65
2022/01/10 02:44:28;;;;;;;4.55;4.15;;;;;;;4.99;84.62;93316.00;5075957;28;20220;-65
2022/01/10 02:46:55;;;;;;;4.60;4.20;;;;;;;5.03;84.37;93324.28;5077184;28;20181;-65
2022/01/10 02:49:25;;;;;;;4.43;4.13;;;;;;;4.98;84.61;93321.84;5076749;28;20224;-65
2022/01/10 02:51:52;;;;;;;3.92;3.63;;;;;;;4.91;85.32;93324.44;5077183;28;20196;-66
2022/01/10 02:54:22;;;;;;;4.03;3.72;;;;;;;4.90;85.72;93320.09;5077002;28;20186;-66
2022/01/10 02:56:51;;;;;;;4.85;3.97;;;;;;;4.98;85.32;93319.09;5075963;28;20197;-67
2022/01/10 02:59:18;;;;;;;5.25;4.68;;;;;;;5.11;84.46;93323.25;5076643;28;20272;-65
2022/01/10 03:01:45;;;;;;;4.40;4.10;;;;;;;5.12;84.57;93326.78;5075992;28;20248;-66
2022/01/10 03:04:12;;;;;;;4.90;4.50;;;;;;;5.11;84.74;93331.44;5076761;28;20186;-66
2022/01/10 03:06:39;;;;;;;4.75;4.35;;;;;;;5.13;84.70;93322.91;5076615;28;20181;-66
2022/01/10 03:09:06;;;;;;;4.50;4.20;;;;;;;5.04;84.89;93332.09;5075537;28;20292;-66
2022/01/10 03:11:35;;;;;;;4.60;4.30;;;;;;;5.11;84.85;93336.13;5076686;28;20177;-66
2022/01/10 03:14:02;;;;;;;5.00;4.55;;;;;;;5.13;84.60;93329.16;5075808;28;20186;-66
2022/01/10 03:16:28;;;;;;;5.00;4.50;;;;;;;5.15;84.51;93340.50;5076540;28;20193;-66
2022/01/10 03:18:55;;;;;;;4.25;3.85;;;;;;;5.13;84.04;93331.91;5076373;28;20185;-66
2022/01/10 03:21:23;;;;;;;4.10;3.80;;;;;;;5.19;83.96;93333.19;5075431;28;20219;-66
2022/01/10 03:23:51;;;;;;;4.22;3.92;;;;;;;5.23;83.79;93334.06;5075627;28;20589;-66
2022/01/10 03:26:18;;;;;;;5.25;4.85;;;;;;;5.23;83.73;93338.72;5075078;28;20227;-66
2022/01/10 03:28:46;;;;;;;6.25;5.75;;;;;;;5.19;83.53;93329.66;5075385;28;20197;-66
2022/01/10 03:31:13;;;;;;;6.35;5.85;;;;;;;5.19;83.58;93332.38;5076244;28;20181;-66
2022/01/10 03:33:40;;;;;;;6.28;5.78;;;;;;;5.12;83.79;93338.53;5075627;28;20208;-66
2022/01/10 03:36:07;;;;;;;7.47;6.65;;;;;;;5.15;83.59;93331.53;5076014;28;20284;-67
2022/01/10 03:38:33;;;;;;;7.05;6.40;;;;;;;5.20;83.42;93326.56;5076197;28;20200;-67
2022/01/10 03:41:00;;;;;;;6.63;6.03;;;;;;;5.24;83.44;93330.16;5075578;28;20205;-66
2022/01/10 03:43:27;;;;;;;6.10;5.70;;;;;;;5.20;83.10;93323.03;5075672;28;20628;-66
2022/01/10 03:45:57;;;;;;;6.60;6.00;;;;;;;5.20;83.31;93323.03;5075405;28;20284;-65
2022/01/10 03:48:23;;;;;;;6.70;6.10;;;;;;;5.21;82.74;93332.81;5076140;28;20247;-67
2022/01/10 03:50:50;;;;;;;6.55;5.97;;;;;;;5.17;82.72;93331.97;5074725;28;20189;-67
2022/01/10 03:53:17;;;;;;;7.40;6.70;;;;;;;5.16;82.58;93338.59;5074928;28;20632;-67
2022/01/10 03:55:44;;;;;;;7.10;6.60;;;;;;;5.09;82.93;93346.66;5076237;28;20189;-67
2022/01/10 03:58:10;;;;;;;7.95;7.25;;;;;;;5.02;83.37;93347.28;5074916;28;20193;-67
2022/01/10 04:00:37;;;;;;;7.43;6.82;;;;;;;5.05;82.83;93350.09;5075334;28;20209;-67
2022/01/10 04:03:07;;;;;;;7.78;7.07;;;;;;;5.01;82.54;93346.50;5075248;28;20196;-66
2022/01/10 04:05:34;;;;;;;7.70;7.00;;;;;;;5.12;82.39;93346.72;5075283;28;20254;-66
2022/01/10 04:08:01;;;;;;;7.78;7.18;;;;;;;5.11;81.90;93347.06;5075746;28;20239;-66
2022/01/10 04:10:28;;;;;;;8.70;8.00;;;;;;;5.13;81.85;93356.50;5074841;28;20227;-66
2022/01/10 04:12:55;;;;;;;8.95;8.15;;;;;;;5.10;81.60;93359.16;5075136;28;20187;-66
2022/01/10 04:15:22;;;;;;;12.55;11.45;;;;;;;5.14;81.78;93360.00;5075619;28;20196;-67
2022/01/10 04:17:52;;;;;;;8.43;7.80;;;;;;;5.13;81.44;93363.91;5075198;28;20180;-67
2022/01/10 04:20:20;;;;;;;7.18;6.57;;;;;;;5.20;81.50;93361.31;5074101;28;20613;-67
2022/01/10 04:22:47;;;;;;;7.88;7.18;;;;;;;5.27;81.27;93367.72;5074493;28;20216;-66
2022/01/10 04:25:14;;;;;;;8.40;7.60;;;;;;;5.32;80.18;93364.66;5074085;28;20521;-66
2022/01/10 04:27:40;;;;;;;6.90;6.40;;;;;;;5.32;80.41;93369.34;5074424;28;20247;-66
2022/01/10 04:30:11;;;;;;;5.95;5.45;;;;;;;5.34;79.56;93382.66;5075497;28;20193;-66
2022/01/10 04:32:37;;;;;;;5.63;5.13;;;;;;;5.25;78.67;93378.19;5075175;28;20184;-67
2022/01/10 04:35:06;;;;;;;4.68;4.22;;;;;;;5.26;78.34;93377.03;5074290;28;20193;-67
2022/01/10 04:37:34;;;;;;;4.30;4.00;;;;;;;5.20;78.03;93380.44;5075398;28;20189;-66
2022/01/10 04:40:01;;;;;;;4.35;4.05;;;;;;;5.21;77.65;93382.03;5075086;28;20216;-66
2022/01/10 04:42:27;;;;;;;3.90;3.60;;;;;;;5.17;77.80;93383.91;5074782;28;20555;-67
2022/01/10 04:44:54;;;;;;;3.65;3.35;;;;;;;5.15;77.27;93383.44;5074812;28;20181;-67
2022/01/10 04:47:21;;;;;;;3.42;3.20;;;;;;;5.14;77.71;93379.13;5074990;28;20204;-65
2022/01/10 04:50:06;;;;;;;3.70;3.40;;;;;;;5.14;77.40;93382.66;5074637;28;20219;-66
2022/01/10 04:52:35;;;;;;;3.80;3.50;;;;;;;5.09;76.51;93387.63;5075076;28;20197;-65
2022/01/10 04:55:02;;;;;;;3.63;3.33;;;;;;;5.05;76.54;93393.81;5074111;28;20197;-65
2022/01/10 04:57:28;;;;;;;3.50;3.17;;;;;;;5.07;76.97;93388.75;5075103;28;20189;-65
2022/01/10 04:59:55;;;;;;;3.90;3.60;;;;;;;5.07;76.91;93393.44;5074703;28;20193;-65
2022/01/10 05:02:22;;;;;;;4.40;4.00;;;;;;;5.06;76.46;93394.59;5074921;28;20216;-65
2022/01/10 05:04:49;;;;;;;4.50;4.10;;;;;;;5.03;77.04;93398.06;5074912;28;20589;-66
2022/01/10 05:07:16;;;;;;;6.50;5.80;;;;;;;5.03;76.65;93401.56;5074926;28;20188;-66
2022/01/10 05:09:44;;;;;;;8.13;7.32;;;;;;;5.05;77.16;93401.22;5074985;28;20189;-66
2022/01/10 05:12:12;;;;;;;11.55;9.98;;;;;;;5.02;77.43;93391.00;5075123;28;20192;-65
2022/01/10 05:14:39;;;;;;;9.48;8.10;;;;;;;4.98;78.64;93401.06;5074074;28;20196;-66
2022/01/10 05:17:06;;;;;;;8.90;6.40;;;;;;;4.96;78.95;93406.09;5074430;28;20205;-65
2022/01/10 05:19:33;;;;;;;12.98;9.30;;;;;;;4.89;79.41;93401.25;5074382;28;20283;-65
2022/01/10 05:21:59;;;;;;;13.52;11.93;;;;;;;4.88;79.84;93405.16;5078117;28;20209;-67
2022/01/10 05:24:26;;;;;;;14.55;12.00;;;;;;;4.82;80.16;93401.09;5078666;28;20186;-65
2022/01/10 05:26:54;;;;;;;9.88;8.98;;;;;;;4.80;80.08;93403.41;5077480;28;20232;-67
2022/01/10 05:29:21;;;;;;;5.80;5.30;;;;;;;4.68;81.25;93411.72;5078515;28;20205;-69
2022/01/10 05:31:48;;;;;;;5.20;4.80;;;;;;;4.63;82.30;93417.47;5078528;28;20199;-67
2022/01/10 05:34:18;;;;;;;5.40;4.80;;;;;;;4.67;81.76;93415.59;5079081;28;20189;-68
2022/01/10 05:36:45;;;;;;;5.05;4.65;;;;;;;4.62;82.73;93424.88;5077575;28;20201;-65
2022/01/10 05:39:11;;;;;;;4.65;4.25;;;;;;;4.56;83.22;93420.81;5077198;28;20698;-65
2022/01/10 05:41:38;;;;;;;4.53;4.15;;;;;;;4.53;83.37;93425.03;5078151;28;20224;-65
2022/01/10 05:44:07;;;;;;;5.25;4.60;;;;;;;4.65;83.73;93424.16;5077887;28;20191;-65
2022/01/10 05:46:34;;;;;;;5.60;5.10;;;;;;;4.69;82.82;93429.69;5077553;28;20197;-66
2022/01/10 05:49:02;;;;;;;5.50;5.00;;;;;;;4.69;83.66;93426.97;5077168;28;20262;-65
2022/01/10 05:51:34;;;;;;;5.15;4.68;;;;;;;4.66;83.20;93433.94;5078104;28;20185;-65
2022/01/10 05:54:01;;;;;;;4.90;4.50;;;;;;;4.56;83.83;93434.47;5078233;28;20193;-65
2022/01/10 05:56:28;;;;;;;5.15;4.75;;;;;;;4.46;84.42;93429.53;5077069;28;20550;-65
2022/01/10 05:58:55;;;;;;;5.32;4.85;;;;;;;4.45;84.89;93436.94;5077693;28;20510;-65
2022/01/10 06:01:23;;;;;;;6.03;5.53;;;;;;;4.41;85.42;93435.28;5077898;28;20201;-65
2022/01/10 06:03:50;;;;;;;7.18;6.47;;;;;;;4.34;85.10;93444.09;5077937;28;20201;-65
2022/01/10 06:06:17;;;;;;;7.45;6.75;;;;;;;4.39;85.46;93438.34;5077057;28;20199;-65
2022/01/10 06:08:44;;;;;;;7.50;6.82;;;;;;;4.44;84.61;93449.03;5077767;28;20197;-66
2022/01/10 06:11:11;;;;;;;7.63;7.03;;;;;;;4.43;84.48;93447.44;5076779;28;20205;-65
2022/01/10 06:13:39;;;;;;;6.57;6.07;;;;;;;4.26;84.53;93453.25;5077454;28;20205;-66
2022/01/10 06:16:06;;;;;;;6.70;6.10;;;;;;;4.29;84.13;93447.88;5077995;28;20284;-66
2022/01/10 06:18:35;;;;;;;6.60;6.10;;;;;;;4.34;84.15;93455.00;5077020;28;20220;-67
2022/01/10 06:21:02;;;;;;;7.03;6.50;;;;;;;4.41;83.25;93460.63;5076468;28;20223;-66
2022/01/10 06:23:28;;;;;;;8.13;7.32;;;;;;;4.40;83.60;93458.28;5078150;28;20181;-67
2022/01/10 06:25:55;;;;;;;9.13;8.23;;;;;;;4.46;83.45;93463.09;5077846;28;20638;-66
2022/01/10 06:28:22;;;;;;;9.82;9.02;;;;;;;4.48;83.47;93465.47;5077330;28;20192;-66
2022/01/10 06:30:49;;;;;;;9.75;8.95;;;;;;;4.56;83.25;93464.50;5077759;28;20190;-67
2022/01/10 06:33:16;;;;;;;10.95;9.85;;;;;;;4.59;82.71;93470.06;5076094;28;20197;-66
2022/01/10 06:35:44;;;;;;;12.98;11.77;;;;;;;4.63;82.84;93472.06;5076840;28;20201;-66
2022/01/10 06:38:11;;;;;;;11.10;10.07;;;;;;;4.63;82.74;93464.69;5077447;28;20193;-66
2022/01/10 06:40:37;;;;;;;10.55;9.75;;;;;;;4.57;82.64;93466.06;5076591;28;20283;-66
2022/01/10 06:43:05;;;;;;;10.30;9.48;;;;;;;4.58;82.52;93473.94;5077200;28;20209;-66
2022/01/10 06:45:31;;;;;;;11.90;10.90;;;;;;;4.53;82.81;93474.19;5076247;28;20224;-66
2022/01/10 06:47:58;;;;;;;11.70;10.70;;;;;;;4.51;83.22;93470.25;5077362;28;20212;-66
2022/01/10 06:50:25;;;;;;;12.40;11.40;;;;;;;4.46;83.55;93468.56;5076683;28;20197;-66
2022/01/10 06:52:55;;;;;;;11.32;10.32;;;;;;;4.48;83.47;93465.47;5076317;28;20196;-66
2022/01/10 06:55:22;;;;;;;11.77;10.70;;;;;;;4.57;83.55;93469.63;5076145;28;20197;-66
2022/01/10 06:57:49;;;;;;;13.15;11.95;;;;;;;4.46;83.21;93474.00;5077084;28;20200;-66
2022/01/10 07:00:16;;;;;;;12.02;11.02;;;;;;;4.55;83.22;93474.63;5076373;28;20522;-67
2022/01/10 07:02:44;;;;;;;11.25;10.30;;;;;;;4.54;82.97;93480.47;5075906;28;20225;-66
2022/01/10 07:05:11;;;;;;;9.65;8.85;;;;;;;4.50;83.45;93476.84;5076238;28;20215;-66
2022/01/10 07:07:38;;;;;;;9.13;8.32;;;;;;;4.52;82.78;93488.19;5075882;28;20219;-66
2022/01/10 07:10:07;;;;;;;8.80;8.07;;;;;;;4.51;82.89;93490.16;5075508;28;20195;-66
2022/01/10 07:12:34;;;;;;;8.43;7.82;;;;;;;4.59;83.27;93493.84;5076564;28;20194;-66
2022/01/10 07:15:01;;;;;;;8.63;7.93;;;;;;;4.64;82.81;93500.97;5075770;28;20204;-68
2022/01/10 07:17:29;;;;;;;8.23;7.63;;;;;;;4.68;82.34;93499.91;5076824;28;20197;-67
2022/01/10 07:19:56;;;;;;;9.27;8.48;;;;;;;4.67;82.70;93509.25;5076859;28;20259;-66
2022/01/10 07:22:23;;;;;;;9.00;8.20;;;;;;;4.69;82.70;93520.63;5075654;28;20224;-66
2022/01/10 07:24:50;;;;;;;8.80;8.02;;;;;;;4.76;82.80;93514.53;5075737;28;20209;-67
2022/01/10 07:27:18;;;;;;;8.77;7.97;;;;;;;4.67;83.28;93516.66;5076281;28;20233;-67
2022/01/10 07:29:49;;;;;;;9.38;8.57;;;;;;;4.71;83.14;93515.56;5076682;28;20192;-67
2022/01/10 07:32:16;;;;;;;9.73;8.65;;;;;;;4.75;83.12;93518.41;5076298;28;20192;-67
2022/01/10 07:34:43;;;;;;;9.63;8.80;;;;;;;4.83;82.81;93515.50;5076786;28;20210;-67
2022/01/10 07:37:10;;;;;;;9.38;8.50;;;;;;;4.85;83.00;93533.47;5075515;28;20221;-66
2022/01/10 07:39:36;;;;;;;8.57;7.88;;;;;;;4.86;82.84;93529.56;5075773;28;20199;-66
2022/01/10 07:42:04;;;;;;;9.15;8.35;;;;;;;4.86;83.01;93532.31;5076222;28;20205;-66
2022/01/10 07:44:32;;;;;;;9.43;8.63;;;;;;;4.92;82.46;93530.91;5074954;28;20554;-67
2022/01/10 07:46:59;;;;;;;9.50;8.57;;;;;;;4.88;82.86;93532.75;5075421;28;20219;-67
2022/01/10 07:49:27;;;;;;;8.30;7.55;;;;;;;4.79;82.95;93538.38;5075194;28;20208;-68
2022/01/10 07:51:57;;;;;;;9.70;8.88;;;;;;;4.69;83.96;93534.28;5074804;28;20240;-66
2022/01/10 07:54:24;;;;;;;9.65;8.77;;;;;;;4.79;83.55;93538.38;5075867;28;20251;-67
2022/01/10 07:56:51;;;;;;;14.15;12.95;;;;;;;4.68;83.35;93537.34;5075624;28;20201;-67
2022/01/10 07:59:18;;;;;;;22.33;20.45;;;;;;;4.70;83.65;93538.59;5074976;28;20216;-67
2022/01/10 08:01:47;;;;;;;23.85;21.80;;;;;;;4.74;83.50;93542.19;5075646;28;20565;-66
2022/01/10 08:04:14;;;;;;;19.13;17.33;;;;;;;4.78;82.08;93550.47;5075773;28;20205;-66
2022/01/10 08:06:41;;;;;;;18.15;16.55;;;;;;;4.76;81.93;93547.31;5076213;28;20193;-66
2022/01/10 08:09:08;;;;;;;16.35;14.85;;;;;;;4.80;80.89;93548.97;5075930;28;20191;-67
2022/01/10 08:11:34;;;;;;;11.75;10.75;;;;;;;4.75;80.49;93545.72;5075929;28;20254;-67
2022/01/10 08:14:02;;;;;;;12.32;11.23;;;;;;;4.83;79.74;93547.50;5075719;28;20181;-67
2022/01/10 08:16:29;;;;;;;13.95;12.73;;;;;;;4.89;79.42;93548.00;5074962;28;20207;-67
2022/01/10 08:18:57;;;;;;;17.00;15.40;;;;;;;4.96;78.85;93537.25;5075587;28;20219;-66
2022/01/10 08:21:24;;;;;;;18.98;17.25;;;;;;;4.99;78.56;93545.53;5075745;28;20203;-67
2022/01/10 08:23:50;;;;;;;20.20;18.30;;;;;;;5.00;77.94;93544.38;5074317;28;20232;-67
2022/01/10 08:26:17;;;;;;;19.23;17.30;;;;;;;5.00;78.22;93547.09;5074608;28;20275;-67
2022/01/10 08:28:44;;;;;;;17.45;15.75;;;;;;;5.05;77.83;93552.31;5075036;28;20640;-66
2022/01/10 08:31:11;;;;;;;20.02;18.13;;;;;;;5.09;77.19;93546.94;5076023;28;20185;-67
2022/01/10 08:33:38;;;;;;;17.88;16.15;;;;;;;5.11;77.04;93550.09;5075201;28;20205;-67
2022/01/10 08:36:07;;;;;;;21.45;19.55;;;;;;;5.15;76.76;93550.16;5074588;28;20223;-66
2022/01/10 08:38:33;;;;;;;19.55;17.75;;;;;;;5.16;76.07;93552.56;5075636;28;20182;-66
2022/01/10 08:41:00;;;;;;;17.75;16.15;;;;;;;5.12;76.09;93548.13;5075100;28;20185;-67
2022/01/10 08:43:27;;;;;;;15.60;14.10;;;;;;;5.13;76.28;93555.22;5075166;28;20210;-66
2022/01/10 08:45:54;;;;;;;17.40;15.63;;;;;;;5.07;75.51;93560.16;5074646;28;20201;-66
2022/01/10 08:48:21;;;;;;;18.27;16.42;;;;;;;5.07;75.70;93554.69;5075695;28;20205;-66
2022/01/10 08:50:48;;;;;;;20.48;18.65;;;;;;;5.07;75.63;93562.88;5075350;28;20189;-66
2022/01/10 08:53:16;;;;;;;22.23;20.33;;;;;;;5.05;75.61;93565.19;5074510;28;20208;-66
2022/01/10 08:55:43;;;;;;;18.98;17.38;;;;;;;5.06;75.55;93569.50;5076463;28;20185;-66
2022/01/10 08:58:09;;;;;;;17.88;16.38;;;;;;;5.10;75.28;93570.38;5079379;28;20185;-67
2022/01/10 09:00:36;;;;;;;16.17;14.77;;;;;;;5.09;75.66;93576.19;5079427;28;20185;-68
2022/01/10 09:03:03;;;;;;;17.17;15.63;;;;;;;5.09;75.20;93579.72;5078854;28;20295;-66
2022/01/10 09:05:32;;;;;;;16.73;15.07;;;;;;;5.10;75.16;93567.63;5079725;28;20203;-66
2022/01/10 09:08:01;;;;;;;19.98;18.00;;;;;;;5.09;75.17;93573.47;5078879;28;20197;-66
2022/01/10 09:10:30;;;;;;;19.90;17.90;;;;;;;5.04;75.09;93567.09;5079464;28;20177;-67
2022/01/10 09:12:57;;;;;;;22.20;19.83;;;;;;;5.04;75.15;93563.56;5078020;28;20189;-66
2022/01/10 09:15:24;;;;;;;22.88;20.58;;;;;;;5.04;75.18;93563.56;5078490;28;20231;-67
2022/01/10 09:17:51;;;;;;;19.88;17.88;;;;;;;5.02;75.27;93563.16;5079263;28;20181;-67
2022/01/10 09:20:17;;;;;;;20.63;18.60;;;;;;;5.04;75.42;93566.31;5077894;28;20628;-67
2022/01/10 09:22:44;;;;;;;22.45;20.42;;;;;;;5.04;75.14;93564.38;5078372;28;20216;-68
2022/01/10 09:25:11;;;;;;;23.50;21.05;;;;;;;5.01;75.27;93562.38;5077887;28;20207;-67
2022/01/10 09:27:42;;;;;;;25.52;23.13;;;;;;;5.00;75.22;93562.72;5078797;28;20248;-66
2022/01/10 09:30:10;;;;;;;30.35;27.55;;;;;;;4.99;75.58;93566.59;5078215;28;20234;-67
2022/01/10 09:32:37;;;;;;;23.17;20.98;;;;;;;4.96;75.64;93559.88;5077914;28;20227;-66
2022/01/10 09:35:04;;;;;;;24.42;22.13;;;;;;;4.96;75.52;93564.56;5078711;28;20185;-66
2022/01/10 09:37:31;;;;;;;23.30;21.20;;;;;;;4.99;75.92;93561.91;5077784;28;20204;-66
2022/01/10 09:39:57;;;;;;;24.17;21.90;;;;;;;5.01;75.73;93569.75;5077877;28;20189;-67
2022/01/10 09:42:24;;;;;;;25.95;23.45;;;;;;;5.01;75.70;93570.56;5077719;28;20220;-65
2022/01/10 09:44:53;;;;;;;24.42;22.02;;;;;;;5.04;75.61;93571.78;5078447;28;20216;-68
2022/01/10 09:47:20;;;;;;;23.98;21.67;;;;;;;5.05;75.74;93570.66;5078874;28;20189;-69
2022/01/10 09:49:47;;;;;;;21.42;19.42;;;;;;;5.12;75.65;93568.09;5077876;28;20207;-66
2022/01/10 09:52:16;;;;;;;26.42;23.67;;;;;;;5.13;75.31;93572.41;5077616;28;20192;-66
2022/01/10 09:54:43;;;;;;;27.63;24.67;;;;;;;5.11;75.07;93576.63;5077448;28;20197;-67
2022/01/10 09:57:09;;;;;;;20.02;18.02;;;;;;;5.10;75.29;93577.78;5077202;28;20205;-67
2022/01/10 09:59:39;;;;;;;23.73;21.63;;;;;;;5.12;75.08;93575.47;5078107;28;20185;-66
2022/01/10 10:02:08;;;;;;;26.60;24.20;;;;;;;5.12;75.17;93581.75;5078176;28;20181;-66
2022/01/10 10:04:36;;;;;;;22.67;20.67;;;;;;;5.12;75.40;93576.28;5077772;28;20209;-65
2022/01/10 10:07:05;;;;;;;29.40;26.85;;;;;;;5.16;74.87;93579.09;5076726;28;20182;-66
2022/01/10 10:09:32;;;;;;;22.95;20.98;;;;;;;5.15;74.95;93577.50;5077582;28;20208;-67
2022/01/10 10:11:58;;;;;;;18.75;17.25;;;;;;;5.17;75.17;93576.00;5077404;28;20497;-66
2022/01/10 10:14:26;;;;;;;15.27;13.98;;;;;;;5.20;74.79;93572.56;5077133;28;20197;-66
2022/01/10 10:16:55;;;;;;;15.02;13.63;;;;;;;5.26;74.20;93582.06;5077857;28;20259;-66
2022/01/10 10:19:27;;;;;;;13.20;11.90;;;;;;;5.27;74.38;93580.16;5077911;28;20211;-67
2022/01/10 10:21:55;;;;;;;17.33;15.63;;;;;;;5.25;74.41;93572.28;5077257;28;20193;-67
2022/01/10 10:24:22;;;;;;;15.35;13.75;;;;;;;5.25;74.58;93579.69;5076669;28;20653;-66
2022/01/10 10:26:50;;;;;;;14.88;13.40;;;;;;;5.22;74.80;93577.66;5077998;28;20240;-66
2022/01/10 10:29:17;;;;;;;14.77;13.38;;;;;;;5.21;74.81;93578.81;5076761;28;20200;-67
2022/01/10 10:31:46;;;;;;;14.35;12.98;;;;;;;5.17;75.23;93572.47;5077652;28;20239;-66
2022/01/10 10:34:19;;;;;;;10.93;10.05;;;;;;;5.21;74.99;93573.34;5076608;28;20204;-66
2022/01/10 10:36:59;;;;;;;11.70;10.60;;;;;;;5.21;74.86;93573.34;5077849;28;20258;-66
2022/01/10 10:39:27;;;;;;;12.88;11.77;;;;;;;5.21;75.06;93570.63;5076901;28;20223;-65
2022/01/10 10:41:55;;;;;;;17.70;15.98;;;;;;;5.21;76.00;93576.09;5076195;28;20655;-65
2022/01/10 10:44:22;;;;;;;18.65;16.85;;;;;;;5.17;76.11;93573.28;5076960;28;20312;-65
2022/01/10 10:46:51;;;;;;;25.35;22.85;;;;;;;5.21;76.61;93571.41;5079006;28;20181;-65
2022/01/10 10:49:20;;;;;;;27.67;24.77;;;;;;;5.23;76.27;93571.84;5079683;28;20219;-65
2022/01/10 10:51:51;;;;;;;28.27;25.67;;;;;;;5.26;75.72;93571.13;5076890;28;20624;-65
2022/01/10 10:54:19;;;;;;;25.83;23.60;;;;;;;5.23;75.99;93569.13;5076140;28;20193;-65
2022/01/10 10:56:46;;;;;;;29.33;26.63;;;;;;;5.23;76.45;93577.31;5075947;28;20231;-65
2022/01/10 10:59:14;;;;;;;24.20;21.90;;;;;;;5.22;76.37;93572.19;5075976;28;20205;-65
2022/01/10 11:01:42;;;;;;;22.92;20.83;;;;;;;5.22;76.51;93580.41;5076838;28;20196;-65
2022/01/10 11:04:10;;;;;;;24.33;21.83;;;;;;;5.22;76.37;93577.66;5076456;28;20597;-65
2022/01/10 11:06:39;;;;;;;21.20;19.00;;;;;;;5.24;76.60;93578.91;5076864;28;20197;-65
2022/01/10 11:09:11;;;;;;;19.20;17.25;;;;;;;5.26;76.61;93581.28;5075741;28;20593;-65
2022/01/10 11:11:38;;;;;;;25.83;23.15;;;;;;;5.25;76.25;93579.69;5076886;28;20195;-65
2022/01/10 11:14:06;;;;;;;36.78;27.63;;;;;;;5.22;76.80;93581.19;5075358;28;20632;-65
2022/01/10 11:16:36;;;;;;;25.00;22.60;;;;;;;5.21;76.20;93582.34;5075905;28;20207;-64
2022/01/10 11:19:11;;;;;;;35.75;32.70;;;;;;;5.14;76.17;93584.13;5075846;28;20565;-65
2022/01/10 11:21:39;;;;;;;21.98;19.98;;;;;;;5.09;76.05;93585.19;5076328;28;20197;-65
2022/01/10 11:24:08;;;;;;;15.55;14.25;;;;;;;4.96;76.80;93583.69;5075271;28;20223;-65
2022/01/10 11:26:38;;;;;;;11.02;10.13;;;;;;;4.89;76.58;93595.22;5076091;28;20241;-65
2022/01/10 11:29:08;;;;;;;12.80;11.70;;;;;;;4.88;77.07;93595.59;5075438;28;20197;-65
2022/01/10 11:31:36;;;;;;;12.35;11.25;;;;;;;4.76;77.92;93597.28;5076215;28;20192;-65
2022/01/10 11:34:03;;;;;;;11.82;10.73;;;;;;;4.74;77.83;93599.56;5076638;28;20211;-67
2022/01/10 11:36:30;;;;;;;12.85;11.65;;;;;;;4.74;77.85;93593.28;5075758;28;20204;-67
2022/01/10 11:38:57;;;;;;;13.20;10.73;;;;;;;4.80;77.56;93594.63;5075452;28;20193;-67
2022/01/10 11:41:27;;;;;;;12.32;11.15;;;;;;;4.86;77.75;93586.94;5075578;28;20193;-67
2022/01/10 11:44:03;;;;;;;10.77;9.77;;;;;;;4.82;76.96;93593.09;5075216;28;20303;-67